Terminal Aerodrome Forecast
Issued by NWS

Home | Current Version | Previous Version | Text Only | Print | Product List | Glossary On
Versions: 1 2 3 4 5 6 7 8 9 10 11 12 13 14 15 16 17 18 19 20
000
FTUS45 KTFX 160600 AAA
TAFGTF
TAF AMD
KGTF 160640Z 1607/1706 26007KT P6SM SCT015 BKN040
      TEMPO 1607/1609 5SM -SHRA BKN015
     FM160900 33010KT 6SM -SHSN BR SCT010 BKN030
      TEMPO 1610/1613 2SM -SN BR BKN010
     FM161800 09010KT 6SM -SHRA BKN025 OVC030
     FM170000 11010KT P6SM VCSH SCT040 BKN060=

USA.gov is the U.S. government's official web portal to all federal, state and local government web resources and services.